createdAt,value
2023-05-22T00:10:34.029Z,3.30
2023-05-22T00:20:59.718Z,3.80
2023-05-22T00:31:25.536Z,3.30
2023-05-22T00:41:51.695Z,3.50
2023-05-22T00:52:18.374Z,2.90
2023-05-22T01:02:44.412Z,3.10
2023-05-22T01:13:20.698Z,3.60
2023-05-22T01:24:36.286Z,3.10
2023-05-22T01:35:07.411Z,3.30
2023-05-22T01:45:33.950Z,3.70
2023-05-22T01:56:07.233Z,3.30
2023-05-22T02:17:18.873Z,3.90
2023-05-22T02:27:46.275Z,3.10
2023-05-22T02:48:36.870Z,3.50
2023-05-22T02:59:03.490Z,3.90
2023-05-22T03:09:29.018Z,3.40
2023-05-22T03:19:54.646Z,3.60
2023-05-22T03:30:20.472Z,3.20
2023-05-22T03:40:46.480Z,3.60
2023-05-22T03:51:12.103Z,3.20
2023-05-22T04:01:39.499Z,4.00
2023-05-22T04:12:05.544Z,4.20
2023-05-22T04:22:31.394Z,4.30
2023-05-22T04:32:57.848Z,3.80
2023-05-22T04:43:26.672Z,3.80
2023-05-22T04:53:52.600Z,4.10
2023-05-22T05:04:18.698Z,4.10
2023-05-22T05:14:44.936Z,4.80
2023-05-22T05:25:11.899Z,4.50
2023-05-22T05:35:37.741Z,5.00
2023-05-22T05:46:03.772Z,4.60
2023-05-22T05:56:30.134Z,4.00
2023-05-22T06:06:55.916Z,5.00
2023-05-22T06:17:21.896Z,4.50
2023-05-22T06:27:47.853Z,3.20
2023-05-22T06:38:13.746Z,3.00
2023-05-22T06:48:39.612Z,3.20
2023-05-22T06:59:06.346Z,3.30
2023-05-22T07:09:32.383Z,3.30
2023-05-22T07:19:58.013Z,3.00
2023-05-22T07:30:23.990Z,2.50
2023-05-22T07:40:50.209Z,3.10
2023-05-22T07:51:16.100Z,2.50
2023-05-22T08:01:42.791Z,2.10
2023-05-22T08:12:10.780Z,2.90
2023-05-22T08:22:38.287Z,2.70
2023-05-22T08:33:04.298Z,3.20
2023-05-22T08:43:30.745Z,2.20
2023-05-22T08:53:58.786Z,2.70
2023-05-22T09:04:25.927Z,2.90
2023-05-22T09:14:53.464Z,2.60
2023-05-22T09:25:22.565Z,2.50
2023-05-22T09:35:50.505Z,2.90
2023-05-22T09:46:19.028Z,3.10
2023-05-22T09:57:08.113Z,2.50
2023-05-22T10:07:39.776Z,2.40
2023-05-22T10:18:06.617Z,2.80
2023-05-22T10:28:39.039Z,2.90
2023-05-22T10:39:23.559Z,2.70
2023-05-22T10:49:51.025Z,2.70
2023-05-22T11:00:19.602Z,2.70
2023-05-22T11:10:59.359Z,2.40
2023-05-22T11:21:31.769Z,3.50
2023-05-22T11:31:58.093Z,2.90
2023-05-22T11:42:23.738Z,2.40
2023-05-22T11:52:50.270Z,3.50
2023-05-22T12:03:17.776Z,2.50
2023-05-22T12:13:44.088Z,2.80
2023-05-22T12:34:37.742Z,2.80
2023-05-22T12:45:03.635Z,2.80
2023-05-22T12:55:30.015Z,3.10
2023-05-22T13:05:55.905Z,2.80
2023-05-22T13:16:21.791Z,2.90
2023-05-22T13:26:47.845Z,2.90
2023-05-22T13:37:14.059Z,2.90
2023-05-22T13:47:39.914Z,2.80
2023-05-22T13:58:06.832Z,3.50
2023-05-22T14:08:32.520Z,2.80
2023-05-22T14:18:58.540Z,2.50
2023-05-22T14:29:24.268Z,3.60
2023-05-22T14:39:49.940Z,2.90
2023-05-22T14:50:19.539Z,3.10
2023-05-22T15:00:47.401Z,3.40
2023-05-22T15:11:13.159Z,2.80
2023-05-22T15:21:39.265Z,2.80
2023-05-22T15:32:05.439Z,3.20
2023-05-22T15:52:56.346Z,4.30
2023-05-22T16:03:22.176Z,4.10
2023-05-22T16:13:48.117Z,2.50
2023-05-22T16:24:13.878Z,3.70
2023-05-22T16:34:39.591Z,3.30
2023-05-22T16:45:06.353Z,3.20
2023-05-22T16:55:32.328Z,3.60
2023-05-22T17:05:57.983Z,3.20
2023-05-22T17:16:23.671Z,3.50
2023-05-22T17:26:49.808Z,3.50
2023-05-22T17:37:16.097Z,3.60
2023-05-22T17:47:41.942Z,3.10
2023-05-22T18:08:32.336Z,3.50
2023-05-22T18:18:58.267Z,4.30
2023-05-22T18:29:24.375Z,4.10
2023-05-22T18:39:50.566Z,4.40
2023-05-22T18:50:16.781Z,4.50
2023-05-22T19:00:45.303Z,4.40
2023-05-22T19:11:11.246Z,6.40
2023-05-22T19:21:37.038Z,5.70
2023-05-22T19:32:02.633Z,5.40
2023-05-22T19:42:28.400Z,6.70
2023-05-22T19:52:54.417Z,6.30
2023-05-22T20:03:21.210Z,6.70
2023-05-22T20:13:46.978Z,6.00
2023-05-22T20:24:19.036Z,6.20
2023-05-22T20:34:45.564Z,6.20
2023-05-22T20:45:14.579Z,5.60
2023-05-22T20:55:41.889Z,6.30
2023-05-22T21:06:08.128Z,6.60
2023-05-22T21:16:36.394Z,6.80
2023-05-22T21:27:04.365Z,6.90
2023-05-22T21:37:30.031Z,7.60
2023-05-22T21:47:56.007Z,7.50
2023-05-22T21:58:21.959Z,7.80
2023-05-22T22:08:47.648Z,7.30
2023-05-22T22:19:13.752Z,7.30
2023-05-22T22:29:41.814Z,7.30
2023-05-22T22:40:08.371Z,6.50
2023-05-22T22:50:34.310Z,7.50
2023-05-22T23:01:00.197Z,6.50
2023-05-22T23:11:27.339Z,6.70
2023-05-22T23:21:53.662Z,7.00
2023-05-22T23:32:19.225Z,6.60
2023-05-22T23:42:44.751Z,7.30
2023-05-22T23:53:10.424Z,8.30
